createdAt,value
2016-06-01T00:00:07.538Z,0
2016-06-01T00:01:07.541Z,0
2016-06-01T00:02:07.559Z,0
2016-06-01T00:03:07.703Z,0
2016-06-01T00:04:07.705Z,0
2016-06-01T00:05:07.708Z,0
2016-06-01T00:06:07.554Z,0
2016-06-01T00:07:07.713Z,0
2016-06-01T00:08:07.700Z,0
2016-06-01T00:09:07.890Z,0
2016-06-01T00:10:07.571Z,0
2016-06-01T00:11:07.756Z,0
2016-06-01T00:12:07.784Z,0
2016-06-01T00:13:07.658Z,0
2016-06-01T00:14:07.827Z,0
2016-06-01T00:15:07.843Z,0
2016-06-01T00:16:07.713Z,0
2016-06-01T00:17:07.867Z,0
2016-06-01T00:18:07.879Z,0
2016-06-01T00:19:07.766Z,0
2016-06-01T00:20:07.743Z,0
2016-06-01T00:21:07.920Z,0
2016-06-01T00:22:07.770Z,0
2016-06-01T00:23:07.917Z,0
2016-06-01T00:24:08.955Z,0
2016-06-01T00:25:07.927Z,0
2016-06-01T00:26:07.931Z,0
2016-06-01T00:27:07.747Z,0
2016-06-01T00:28:07.611Z,0
2016-06-01T00:29:07.771Z,0
2016-06-01T00:30:07.915Z,0
2016-06-01T00:31:07.918Z,0
2016-06-01T00:32:07.921Z,0
2016-06-01T00:33:07.767Z,0
2016-06-01T00:34:07.927Z,0
2016-06-01T00:35:07.945Z,0
2016-06-01T00:36:07.933Z,0
2016-06-01T00:37:07.779Z,0
2016-06-01T00:38:07.938Z,0
2016-06-01T00:39:07.941Z,0
2016-06-01T00:40:07.772Z,0
2016-06-01T00:41:07.634Z,0
2016-06-01T00:42:07.949Z,0
2016-06-01T00:43:07.936Z,0
2016-06-01T00:44:07.922Z,0
2016-06-01T00:45:07.941Z,0
2016-06-01T00:46:07.928Z,0
2016-06-01T00:47:07.946Z,0
2016-06-01T00:48:07.949Z,0
2016-06-01T00:49:07.639Z,0
2016-06-01T00:50:07.783Z,0
2016-06-01T00:51:07.644Z,0
2016-06-01T00:52:07.944Z,0
2016-06-01T00:53:07.932Z,0
2016-06-01T00:54:07.668Z,0
2016-06-01T00:55:07.952Z,0
2016-06-01T00:56:07.955Z,0
2016-06-01T00:57:07.942Z,0
2016-06-01T00:58:07.945Z,0
2016-06-01T00:59:07.963Z,0
2016-06-01T01:00:07.950Z,0
2016-06-01T01:01:07.968Z,0
2016-06-01T01:02:07.956Z,0
2016-06-01T01:03:07.646Z,0
2016-06-01T01:04:07.945Z,0
2016-06-01T01:05:07.964Z,0
2016-06-01T01:06:07.809Z,0
2016-06-01T01:07:07.641Z,0
2016-06-01T01:08:07.972Z,0
2016-06-01T01:09:08.490Z,0
2016-06-01T01:10:07.945Z,0
2016-06-01T01:11:07.948Z,0
2016-06-01T01:12:07.811Z,0
2016-06-01T01:13:07.938Z,0
2016-06-01T01:14:07.956Z,0
2016-06-01T01:15:07.803Z,0
2016-06-01T01:16:07.806Z,0
2016-06-01T01:17:07.808Z,0
2016-06-01T01:18:07.952Z,0
2016-06-01T01:19:07.954Z,0
2016-06-01T01:20:07.957Z,0
2016-06-01T01:21:07.960Z,0
2016-06-01T01:22:07.822Z,0
2016-06-01T01:23:07.965Z,0
2016-06-01T01:24:07.983Z,0
2016-06-01T01:25:07.986Z,0
2016-06-01T01:26:07.817Z,0
2016-06-01T01:27:07.991Z,0
2016-06-01T01:28:07.979Z,0
2016-06-01T01:29:07.966Z,0
2016-06-01T01:30:07.968Z,0
2016-06-01T01:31:07.970Z,0
2016-06-01T01:32:07.973Z,0
2016-06-01T01:33:07.961Z,0
2016-06-01T01:34:07.823Z,0
2016-06-01T01:35:07.997Z,0
2016-06-01T01:36:07.812Z,0
2016-06-01T01:37:07.815Z,0
2016-06-01T01:38:07.975Z,0
2016-06-01T01:39:08.727Z,0
2016-06-01T01:40:07.823Z,0
2016-06-01T01:41:07.653Z,0
2016-06-01T01:42:07.828Z,0
2016-06-01T01:43:07.831Z,0
2016-06-01T01:44:07.991Z,0
2016-06-01T01:45:07.821Z,0
2016-06-01T01:46:07.980Z,0
2016-06-01T01:47:07.983Z,0
2016-06-01T01:48:07.986Z,0
2016-06-01T01:49:07.675Z,0
2016-06-01T01:50:07.991Z,0
2016-06-01T01:51:07.994Z,0
2016-06-01T01:52:07.980Z,0
2016-06-01T01:53:07.983Z,0
2016-06-01T01:54:09.173Z,0
2016-06-01T01:55:07.973Z,0
2016-06-01T01:56:07.976Z,0
2016-06-01T01:57:07.979Z,0
2016-06-01T01:58:07.981Z,0
2016-06-01T01:59:07.984Z,0
2016-06-01T02:00:07.846Z,0
2016-06-01T02:01:07.989Z,0
2016-06-01T02:02:07.992Z,0
2016-06-01T02:03:07.994Z,0
2016-06-01T02:04:07.857Z,0
2016-06-01T02:05:08.000Z,0
2016-06-01T02:06:08.003Z,0
2016-06-01T02:07:07.849Z,0
2016-06-01T02:08:07.992Z,0
2016-06-01T02:09:08.619Z,0
2016-06-01T02:10:07.998Z,0
2016-06-01T02:11:07.688Z,0
2016-06-01T02:12:07.987Z,0
2016-06-01T02:13:07.990Z,0
2016-06-01T02:14:07.680Z,0
2016-06-01T02:15:07.855Z,0
2016-06-01T02:16:07.998Z,0
2016-06-01T02:17:08.017Z,0
2016-06-01T02:18:08.003Z,0
2016-06-01T02:19:08.006Z,0
2016-06-01T02:20:08.024Z,0
2016-06-01T02:21:08.011Z,0
2016-06-01T02:22:08.030Z,0
2016-06-01T02:23:07.860Z,0
2016-06-01T02:24:08.895Z,0
2016-06-01T02:25:07.726Z,0
2016-06-01T02:26:07.853Z,0
2016-06-01T02:27:08.012Z,0
2016-06-01T02:28:08.015Z,0
2016-06-01T02:29:08.017Z,0
2016-06-01T02:30:07.708Z,0
2016-06-01T02:31:08.024Z,0
2016-06-01T02:32:08.009Z,0
2016-06-01T02:33:07.873Z,0
2016-06-01T02:34:08.015Z,0
2016-06-01T02:35:07.846Z,0
2016-06-01T02:36:08.021Z,0
2016-06-01T02:37:07.867Z,0
2016-06-01T02:38:08.010Z,0
2016-06-01T02:39:08.013Z,0
2016-06-01T02:40:07.875Z,0
2016-06-01T02:41:08.019Z,0
2016-06-01T02:42:08.022Z,0
2016-06-01T02:43:08.040Z,0
2016-06-01T02:44:07.870Z,0
2016-06-01T02:45:07.716Z,0
2016-06-01T02:46:08.032Z,0
2016-06-01T02:47:07.878Z,0
2016-06-01T02:48:07.928Z,0
2016-06-01T02:49:07.869Z,0
2016-06-01T02:50:08.089Z,0
2016-06-01T02:51:08.013Z,0
2016-06-01T02:52:08.032Z,0
2016-06-01T02:53:07.942Z,0
2016-06-01T02:54:08.444Z,0
2016-06-01T02:55:07.869Z,0
2016-06-01T02:56:08.106Z,0
2016-06-01T02:57:07.952Z,0
2016-06-01T02:58:08.032Z,0
2016-06-01T02:59:08.036Z,0
2016-06-01T03:00:08.038Z,0
2016-06-01T03:01:07.885Z,0
2016-06-01T03:02:07.872Z,0
2016-06-01T03:03:08.031Z,0
2016-06-01T03:04:08.033Z,0
2016-06-01T03:05:08.037Z,0
2016-06-01T03:06:08.023Z,0
2016-06-01T03:07:08.057Z,0
2016-06-01T03:08:08.045Z,0
2016-06-01T03:09:08.609Z,0
2016-06-01T03:10:08.050Z,0
2016-06-01T03:11:07.724Z,0
2016-06-01T03:12:08.024Z,0
2016-06-01T03:13:07.886Z,0
2016-06-01T03:14:08.029Z,0
2016-06-01T03:15:08.047Z,0
2016-06-01T03:16:08.050Z,0
2016-06-01T03:17:08.037Z,0
2016-06-01T03:18:07.728Z,0
2016-06-01T03:19:08.042Z,0
2016-06-01T03:20:07.733Z,0
2016-06-01T03:21:08.048Z,0
2016-06-01T03:22:07.910Z,0
2016-06-01T03:23:08.053Z,0
2016-06-01T03:24:09.056Z,0
2016-06-01T03:25:07.919Z,0
2016-06-01T03:26:07.905Z,0
2016-06-01T03:27:08.064Z,0
2016-06-01T03:28:08.052Z,0
2016-06-01T03:29:08.069Z,0
2016-06-01T03:30:08.072Z,0
2016-06-01T03:31:08.075Z,0
2016-06-01T03:32:08.063Z,0
2016-06-01T03:33:08.049Z,0
2016-06-01T03:34:08.067Z,0
2016-06-01T03:35:07.898Z,0
2016-06-01T03:36:07.745Z,0
2016-06-01T03:37:07.904Z,0
2016-06-01T03:38:08.048Z,0
2016-06-01T03:39:08.581Z,0
2016-06-01T03:40:07.755Z,0
2016-06-01T03:41:08.055Z,0
2016-06-01T03:42:07.745Z,0
2016-06-01T03:43:07.920Z,0
2016-06-01T03:44:08.064Z,0
2016-06-01T03:45:07.910Z,0
2016-06-01T03:46:07.911Z,0
2016-06-01T03:47:08.071Z,0
2016-06-01T03:48:08.074Z,0
2016-06-01T03:49:08.077Z,0
2016-06-01T03:50:07.907Z,0
2016-06-01T03:51:08.067Z,0
2016-06-01T03:52:07.927Z,0
2016-06-01T03:53:07.916Z,0
2016-06-01T03:54:08.137Z,0
2016-06-01T03:55:08.077Z,0
2016-06-01T03:56:08.064Z,0
2016-06-01T03:57:08.067Z,0
2016-06-01T03:58:07.929Z,0
2016-06-01T03:59:08.072Z,0
2016-06-01T04:00:08.059Z,0
2016-06-01T04:01:07.921Z,0
2016-06-01T04:02:08.065Z,0
2016-06-01T04:03:07.896Z,0
2016-06-01T04:04:08.071Z,0
2016-06-01T04:05:08.072Z,0
2016-06-01T04:06:07.779Z,0
2016-06-01T04:07:08.079Z,0
2016-06-01T04:08:07.784Z,0
2016-06-01T04:09:08.240Z,0
2016-06-01T04:10:07.946Z,0
2016-06-01T04:11:07.932Z,0
2016-06-01T04:12:07.779Z,0
2016-06-01T04:13:07.938Z,0
2016-06-01T04:14:07.940Z,0
2016-06-01T04:15:07.787Z,0
2016-06-01T04:16:07.931Z,0
2016-06-01T04:17:08.073Z,0
2016-06-01T04:18:08.092Z,0
2016-06-01T04:19:07.782Z,0
2016-06-01T04:20:08.082Z,0
2016-06-01T04:21:07.928Z,0
2016-06-01T04:22:08.103Z,0
2016-06-01T04:23:07.933Z,5
2016-06-01T04:24:09.171Z,5
2016-06-01T04:25:07.782Z,5
2016-06-01T04:26:07.927Z,5
2016-06-01T04:27:08.085Z,5
2016-06-01T04:28:08.088Z,5
2016-06-01T04:29:07.934Z,5
2016-06-01T04:30:08.109Z,5
2016-06-01T04:31:08.095Z,5
2016-06-01T04:32:08.099Z,5
2016-06-01T04:33:08.085Z,5
2016-06-01T04:34:08.104Z,5
2016-06-01T04:35:08.107Z,5
2016-06-01T04:36:07.796Z,5
2016-06-01T04:37:08.096Z,5
2016-06-01T04:38:07.959Z,5
2016-06-01T04:39:08.524Z,5
2016-06-01T04:40:08.104Z,5
2016-06-01T04:41:07.967Z,5
2016-06-01T04:42:07.953Z,5
2016-06-01T04:43:07.956Z,5
2016-06-01T04:44:07.803Z,5
2016-06-01T04:45:08.102Z,5
2016-06-01T04:46:07.808Z,5
2016-06-01T04:47:07.951Z,5
2016-06-01T04:48:07.953Z,5
2016-06-01T04:49:08.114Z,5
2016-06-01T04:50:08.116Z,5
2016-06-01T04:51:08.102Z,5
2016-06-01T04:52:08.122Z,5
2016-06-01T04:53:08.124Z,5
2016-06-01T04:54:08.391Z,5
2016-06-01T04:55:07.958Z,5
2016-06-01T04:56:07.991Z,10
2016-06-01T04:57:08.119Z,10
2016-06-01T04:58:08.121Z,10
2016-06-01T04:59:08.125Z,10
2016-06-01T05:00:07.955Z,10
2016-06-01T05:01:08.130Z,10
2016-06-01T05:02:07.976Z,10
2016-06-01T05:03:08.119Z,10
2016-06-01T05:04:07.982Z,10
2016-06-01T05:05:07.968Z,10
2016-06-01T05:06:07.971Z,10
2016-06-01T05:07:07.974Z,10
2016-06-01T05:08:07.977Z,10
2016-06-01T05:09:08.293Z,10
2016-06-01T05:10:07.982Z,5
2016-06-01T05:11:07.984Z,5
2016-06-01T05:12:08.128Z,10
2016-06-01T05:13:08.115Z,10
2016-06-01T05:14:07.976Z,10
2016-06-01T05:15:08.120Z,10
2016-06-01T05:16:07.982Z,10
2016-06-01T05:17:08.142Z,10
2016-06-01T05:18:08.128Z,10
2016-06-01T05:19:08.162Z,10
2016-06-01T05:20:07.978Z,15
2016-06-01T05:21:08.121Z,15
2016-06-01T05:22:08.123Z,15
2016-06-01T05:23:07.829Z,15
2016-06-01T05:24:08.129Z,15
2016-06-01T05:25:07.991Z,15
2016-06-01T05:26:08.150Z,15
2016-06-01T05:27:08.122Z,15
2016-06-01T05:28:08.139Z,20
2016-06-01T05:29:08.158Z,20
2016-06-01T05:30:08.145Z,20
2016-06-01T05:31:08.132Z,20
2016-06-01T05:32:07.979Z,20
2016-06-01T05:33:08.138Z,20
2016-06-01T05:34:08.140Z,20
2016-06-01T05:35:08.158Z,20
2016-06-01T05:36:08.005Z,20
2016-06-01T05:37:08.149Z,20
2016-06-01T05:38:07.995Z,25
2016-06-01T05:39:08.263Z,25
2016-06-01T05:40:08.156Z,25
2016-06-01T05:41:08.003Z,25
2016-06-01T05:42:08.146Z,25
2016-06-01T05:43:08.148Z,25
2016-06-01T05:44:07.995Z,25
2016-06-01T05:45:08.154Z,25
2016-06-01T05:46:08.157Z,25
2016-06-01T05:47:08.175Z,25
2016-06-01T05:48:08.147Z,25
2016-06-01T05:49:07.993Z,25
2016-06-01T05:50:07.996Z,25
2016-06-01T05:51:08.155Z,25
2016-06-01T05:52:08.158Z,25
2016-06-01T05:53:08.003Z,25
2016-06-01T05:54:09.069Z,25
2016-06-01T05:55:07.853Z,25
2016-06-01T05:56:07.997Z,30
2016-06-01T05:57:08.155Z,30
2016-06-01T05:58:08.158Z,30
2016-06-01T05:59:08.145Z,30
2016-06-01T06:00:08.164Z,35
2016-06-01T06:01:08.150Z,35
2016-06-01T06:02:08.013Z,35
2016-06-01T06:03:08.016Z,35
2016-06-01T06:04:08.174Z,40
2016-06-01T06:05:08.176Z,40
2016-06-01T06:06:08.023Z,45
2016-06-01T06:07:08.026Z,45
2016-06-01T06:08:08.169Z,45
2016-06-01T06:09:08.609Z,45
2016-06-01T06:10:08.049Z,50
2016-06-01T06:11:08.162Z,50
2016-06-01T06:12:08.024Z,50
2016-06-01T06:13:07.871Z,50
2016-06-01T06:14:08.185Z,55
2016-06-01T06:15:08.031Z,55
2016-06-01T06:16:08.034Z,60
2016-06-01T06:17:08.037Z,60
2016-06-01T06:18:08.039Z,65
2016-06-01T06:19:08.183Z,65
2016-06-01T06:20:08.186Z,65
2016-06-01T06:21:08.203Z,65
2016-06-01T06:22:08.191Z,65
2016-06-01T06:23:08.054Z,65
2016-06-01T06:24:09.353Z,70
2016-06-01T06:25:08.043Z,70
2016-06-01T06:26:08.186Z,70
2016-06-01T06:27:08.205Z,70
2016-06-01T06:28:08.191Z,70
2016-06-01T06:29:08.039Z,70
2016-06-01T06:30:08.041Z,70
2016-06-01T06:31:07.887Z,75
2016-06-01T06:32:08.186Z,75
2016-06-01T06:33:08.205Z,85
2016-06-01T06:34:08.208Z,90
2016-06-01T06:35:07.883Z,95
2016-06-01T06:36:08.213Z,95
2016-06-01T06:37:07.904Z,100
2016-06-01T06:38:08.218Z,100
2016-06-01T06:39:08.487Z,100
2016-06-01T06:40:08.208Z,100
2016-06-01T06:41:07.915Z,105
2016-06-01T06:42:08.199Z,105
2016-06-01T06:43:08.060Z,105
2016-06-01T06:44:07.907Z,105
2016-06-01T06:45:08.206Z,105
2016-06-01T06:46:08.224Z,100
2016-06-01T06:47:08.212Z,100
2016-06-01T06:48:08.073Z,95
2016-06-01T06:49:08.076Z,90
2016-06-01T06:50:08.220Z,90
2016-06-01T06:51:08.238Z,90
2016-06-01T06:52:08.069Z,95
2016-06-01T06:53:08.227Z,95
2016-06-01T06:54:08.261Z,90
2016-06-01T06:55:08.248Z,90
2016-06-01T06:56:08.236Z,90
2016-06-01T06:57:08.223Z,90
2016-06-01T06:58:08.242Z,90
2016-06-01T06:59:08.228Z,90
2016-06-01T07:00:08.230Z,90
2016-06-01T07:01:08.233Z,85
2016-06-01T07:02:08.236Z,85
2016-06-01T07:03:08.239Z,80
2016-06-01T07:04:08.242Z,80
2016-06-01T07:05:08.105Z,75
2016-06-01T07:06:08.247Z,75
2016-06-01T07:07:08.249Z,70
2016-06-01T07:08:08.253Z,70
2016-06-01T07:09:08.099Z,65
2016-06-01T07:10:08.258Z,65
2016-06-01T07:11:08.104Z,65
2016-06-01T07:12:08.091Z,65
2016-06-01T07:13:08.251Z,65
2016-06-01T07:14:08.253Z,65
2016-06-01T07:15:08.256Z,65
2016-06-01T07:16:08.117Z,65
2016-06-01T07:17:08.277Z,65
2016-06-01T07:18:08.295Z,65
2016-06-01T07:19:08.110Z,60
2016-06-01T07:20:08.270Z,60
2016-06-01T07:21:08.131Z,65
2016-06-01T07:22:08.290Z,65
2016-06-01T07:23:08.308Z,65
2016-06-01T07:24:08.280Z,65
2016-06-01T07:25:08.298Z,65
2016-06-01T07:26:08.270Z,70
2016-06-01T07:27:08.116Z,70
2016-06-01T07:28:07.962Z,75
2016-06-01T07:29:08.278Z,80
2016-06-01T07:30:08.139Z,80
2016-06-01T07:31:08.158Z,85
2016-06-01T07:32:08.286Z,85
2016-06-01T07:33:08.289Z,90
2016-06-01T07:34:08.135Z,95
2016-06-01T07:35:08.138Z,100
2016-06-01T07:36:08.297Z,100
2016-06-01T07:37:09.033Z,105
2016-06-01T07:38:08.270Z,105
2016-06-01T07:39:08.398Z,110
2016-06-01T07:40:07.979Z,115
2016-06-01T07:41:08.294Z,120
2016-06-01T07:42:08.313Z,125
2016-06-01T07:43:08.300Z,130
2016-06-01T07:44:08.146Z,135
2016-06-01T07:45:08.304Z,145
2016-06-01T07:46:08.292Z,155
2016-06-01T07:47:08.310Z,165
2016-06-01T07:48:08.313Z,170
2016-06-01T07:49:08.316Z,175
2016-06-01T07:50:08.303Z,185
2016-06-01T07:51:08.321Z,190
2016-06-01T07:52:08.026Z,195
2016-06-01T07:53:08.014Z,205
2016-06-01T07:54:08.189Z,215
2016-06-01T07:55:08.020Z,225
2016-06-01T07:56:08.178Z,230
2016-06-01T07:57:08.306Z,240
2016-06-01T07:58:08.184Z,240
2016-06-01T07:59:08.170Z,245
2016-06-01T08:00:08.174Z,250
2016-06-01T08:01:08.191Z,270
2016-06-01T08:02:08.335Z,280
2016-06-01T08:03:08.338Z,285
2016-06-01T08:04:08.200Z,290
2016-06-01T08:05:08.343Z,290
2016-06-01T08:06:08.346Z,295
2016-06-01T08:07:08.208Z,295
2016-06-01T08:08:08.055Z,290
2016-06-01T08:09:09.666Z,275
2016-06-01T08:10:08.216Z,260
2016-06-01T08:11:08.062Z,260
2016-06-01T08:12:08.377Z,260
2016-06-01T08:13:08.068Z,265
2016-06-01T08:14:08.368Z,280
2016-06-01T08:15:08.386Z,305
2016-06-01T08:16:08.373Z,305
2016-06-01T08:17:08.219Z,305
2016-06-01T08:18:08.253Z,315
2016-06-01T08:19:08.240Z,310
2016-06-01T08:20:08.384Z,305
2016-06-01T08:21:08.246Z,275
2016-06-01T08:22:08.249Z,270
2016-06-01T08:23:08.267Z,245
2016-06-01T08:24:08.144Z,250
2016-06-01T08:25:08.413Z,260
2016-06-01T08:26:08.400Z,265
2016-06-01T08:27:08.418Z,275
2016-06-01T08:28:08.420Z,290
2016-06-01T08:29:08.423Z,285
2016-06-01T08:30:08.286Z,280
2016-06-01T08:31:08.429Z,245
2016-06-01T08:32:08.416Z,235
2016-06-01T08:33:08.277Z,235
2016-06-01T08:34:08.453Z,235
2016-06-01T08:35:08.439Z,240
2016-06-01T08:36:08.286Z,250
2016-06-01T08:37:08.445Z,255
2016-06-01T08:38:08.463Z,265
2016-06-01T08:39:08.888Z,275
2016-06-01T08:40:08.313Z,280
2016-06-01T08:41:08.455Z,280
2016-06-01T08:42:08.458Z,300
2016-06-01T08:43:08.477Z,280
2016-06-01T08:44:08.480Z,275
2016-06-01T08:45:08.310Z,260
2016-06-01T08:46:08.469Z,250
2016-06-01T08:47:08.332Z,240
2016-06-01T08:48:08.491Z,235
2016-06-01T08:49:08.352Z,225
2016-06-01T08:50:08.511Z,210
2016-06-01T08:51:08.185Z,195
2016-06-01T08:52:08.517Z,185
2016-06-01T08:53:08.504Z,175
2016-06-01T08:54:08.304Z,160
2016-06-01T08:55:08.493Z,150
2016-06-01T08:56:08.512Z,140
2016-06-01T08:57:08.515Z,135
2016-06-01T08:58:08.376Z,135
2016-06-01T08:59:08.222Z,135
2016-06-01T09:00:08.226Z,140
2016-06-01T09:01:08.384Z,145
2016-06-01T09:02:08.528Z,155
2016-06-01T09:03:08.562Z,165
2016-06-01T09:04:08.220Z,175
2016-06-01T09:05:08.552Z,190
2016-06-01T09:06:08.398Z,195
2016-06-01T09:07:08.541Z,200
2016-06-01T09:08:08.544Z,200
2016-06-01T09:09:09.608Z,205
2016-06-01T09:10:08.408Z,215
2016-06-01T09:11:08.568Z,225
2016-06-01T09:12:08.571Z,230
2016-06-01T09:13:08.574Z,235
2016-06-01T09:14:08.435Z,225
2016-06-01T09:15:08.439Z,220
2016-06-01T09:16:08.622Z,210
2016-06-01T09:17:08.509Z,210
2016-06-01T09:18:08.675Z,215
2016-06-01T09:19:08.363Z,225
2016-06-01T09:20:08.744Z,235
2016-06-01T09:21:08.572Z,250
2016-06-01T09:22:08.735Z,260
2016-06-01T09:23:08.594Z,275
2016-06-01T09:24:08.481Z,285
2016-06-01T09:25:09.237Z,290
2016-06-01T09:26:08.800Z,300
2016-06-01T09:27:08.790Z,305
2016-06-01T09:28:08.812Z,315
2016-06-01T09:29:08.801Z,315
2016-06-01T09:30:08.823Z,305
2016-06-01T09:31:08.782Z,305
2016-06-01T09:32:08.847Z,295
2016-06-01T09:33:08.852Z,290
2016-06-01T09:34:08.825Z,280
2016-06-01T09:35:08.844Z,275
2016-06-01T09:36:08.848Z,275
2016-06-01T09:37:08.851Z,280
2016-06-01T09:38:08.713Z,280
2016-06-01T09:39:10.032Z,285
2016-06-01T09:40:09.141Z,280
2016-06-01T09:41:08.707Z,280
2016-06-01T09:42:08.914Z,275
2016-06-01T09:43:08.901Z,265
2016-06-01T09:44:08.887Z,255
2016-06-01T09:45:08.890Z,250
2016-06-01T09:46:08.581Z,245
2016-06-01T09:47:08.912Z,240
2016-06-01T09:48:08.728Z,240
2016-06-01T09:49:08.902Z,240
2016-06-01T09:50:08.764Z,230
2016-06-01T09:51:08.907Z,225
2016-06-01T09:52:08.754Z,215
2016-06-01T09:53:08.929Z,215
2016-06-01T09:54:08.931Z,220
2016-06-01T09:55:10.105Z,230
2016-06-01T09:56:08.937Z,240
2016-06-01T09:57:08.939Z,245
2016-06-01T09:58:08.926Z,250
2016-06-01T09:59:08.632Z,240
2016-06-01T10:00:08.635Z,230
2016-06-01T10:01:08.794Z,215
2016-06-01T10:02:08.828Z,210
2016-06-01T10:03:08.815Z,200
2016-06-01T10:04:08.974Z,190
2016-06-01T10:05:08.663Z,185
2016-06-01T10:06:08.995Z,180
2016-06-01T10:07:08.997Z,190
2016-06-01T10:08:08.985Z,200
2016-06-01T10:09:09.815Z,210
2016-06-01T10:10:11.415Z,220
2016-06-01T10:11:08.993Z,225
2016-06-01T10:12:09.011Z,235
2016-06-01T10:13:08.999Z,240
2016-06-01T10:14:09.016Z,270
2016-06-01T10:15:09.034Z,275
2016-06-01T10:16:08.850Z,290
2016-06-01T10:17:09.009Z,285
2016-06-01T10:18:09.011Z,270
2016-06-01T10:19:08.717Z,255
2016-06-01T10:20:09.017Z,250
2016-06-01T10:21:09.035Z,255
2016-06-01T10:22:09.053Z,260
2016-06-01T10:23:08.993Z,265
2016-06-01T10:24:09.715Z,270
2016-06-01T10:25:10.484Z,280
2016-06-01T10:26:08.909Z,290
2016-06-01T10:27:08.911Z,290
2016-06-01T10:28:08.913Z,290
2016-06-01T10:29:09.072Z,290
2016-06-01T10:30:09.137Z,290
2016-06-01T10:31:08.922Z,290
2016-06-01T10:32:08.939Z,280
2016-06-01T10:33:08.942Z,275
2016-06-01T10:34:09.086Z,275
2016-06-01T10:35:08.948Z,270
2016-06-01T10:36:09.107Z,265
2016-06-01T10:37:09.110Z,260
2016-06-01T10:38:09.143Z,255
2016-06-01T10:39:08.959Z,240
2016-06-01T10:40:09.524Z,235
2016-06-01T10:41:09.120Z,225
2016-06-01T10:42:08.983Z,220
2016-06-01T10:43:08.829Z,215
2016-06-01T10:44:09.144Z,215
2016-06-01T10:45:09.131Z,225
2016-06-01T10:46:09.134Z,230
2016-06-01T10:47:09.151Z,240
2016-06-01T10:48:08.858Z,245
2016-06-01T10:49:09.001Z,245
2016-06-01T10:50:09.160Z,250
2016-06-01T10:51:09.179Z,250
2016-06-01T10:52:09.182Z,240
2016-06-01T10:53:09.168Z,235
2016-06-01T10:54:09.045Z,245
2016-06-01T10:55:09.486Z,225
2016-06-01T10:56:09.192Z,220
2016-06-01T10:57:09.070Z,215
2016-06-01T10:58:09.041Z,215
2016-06-01T10:59:09.200Z,215
2016-06-01T11:00:09.218Z,220
2016-06-01T11:01:09.221Z,215
2016-06-01T11:02:09.209Z,215
2016-06-01T11:03:09.225Z,210
2016-06-01T11:04:09.088Z,220
2016-06-01T11:05:09.247Z,220
2016-06-01T11:06:09.234Z,215
2016-06-01T11:07:09.096Z,215
2016-06-01T11:08:09.239Z,210
2016-06-01T11:09:09.086Z,195
2016-06-01T11:10:09.339Z,180
2016-06-01T11:11:09.263Z,165
2016-06-01T11:12:09.125Z,160
2016-06-01T11:13:09.096Z,155
2016-06-01T11:14:09.115Z,150
2016-06-01T11:15:09.274Z,150
2016-06-01T11:16:09.277Z,150
2016-06-01T11:17:09.279Z,150
2016-06-01T11:18:09.141Z,150
2016-06-01T11:19:09.160Z,155
2016-06-01T11:20:09.382Z,155
2016-06-01T11:21:09.353Z,150
2016-06-01T11:22:09.324Z,150
2016-06-01T11:23:09.295Z,140
2016-06-01T11:24:09.314Z,140
2016-06-01T11:25:09.379Z,135
2016-06-01T11:26:09.320Z,130
2016-06-01T11:27:09.165Z,130
2016-06-01T11:28:09.356Z,130
2016-06-01T11:29:09.328Z,130
2016-06-01T11:30:09.331Z,130
2016-06-01T11:31:09.161Z,130
2016-06-01T11:32:09.335Z,130
2016-06-01T11:33:09.181Z,135
2016-06-01T11:34:09.356Z,135
2016-06-01T11:35:09.203Z,140
2016-06-01T11:36:09.206Z,135
2016-06-01T11:37:09.365Z,140
2016-06-01T11:38:09.383Z,125
2016-06-01T11:39:09.370Z,130
2016-06-01T11:40:10.014Z,130
2016-06-01T11:41:09.407Z,130
2016-06-01T11:42:09.393Z,125
2016-06-01T11:43:09.427Z,125
2016-06-01T11:44:09.258Z,125
2016-06-01T11:45:09.402Z,125
2016-06-01T11:46:09.421Z,125
2016-06-01T11:47:09.251Z,125
2016-06-01T11:48:09.410Z,130
2016-06-01T11:49:09.257Z,135
2016-06-01T11:50:09.415Z,145
2016-06-01T11:51:09.418Z,150
2016-06-01T11:52:09.265Z,155
2016-06-01T11:53:09.439Z,165
2016-06-01T11:54:09.442Z,175
2016-06-01T11:55:10.240Z,180
2016-06-01T11:56:09.134Z,180
2016-06-01T11:57:09.450Z,190
2016-06-01T11:58:09.437Z,195
2016-06-01T11:59:09.298Z,195
2016-06-01T12:00:09.489Z,195
2016-06-01T12:01:09.164Z,190
2016-06-01T12:02:09.479Z,180
2016-06-01T12:03:09.481Z,170
2016-06-01T12:04:09.469Z,170
2016-06-01T12:05:09.503Z,170
2016-06-01T12:06:09.334Z,170
2016-06-01T12:07:09.507Z,170
2016-06-01T12:08:09.339Z,175
2016-06-01T12:09:09.498Z,175
2016-06-01T12:10:10.219Z,180
2016-06-01T12:11:09.487Z,180
2016-06-01T12:12:09.506Z,185
2016-06-01T12:13:09.368Z,190
2016-06-01T12:14:09.511Z,195
2016-06-01T12:15:09.514Z,200
2016-06-01T12:16:09.376Z,200
2016-06-01T12:17:09.379Z,200
2016-06-01T12:18:09.381Z,205
2016-06-01T12:19:09.399Z,210
2016-06-01T12:20:09.105Z,205
2016-06-01T12:21:09.404Z,205
2016-06-01T12:22:09.548Z,205
2016-06-01T12:23:09.270Z,205
2016-06-01T12:24:09.554Z,200
2016-06-01T12:25:09.493Z,195
2016-06-01T12:26:09.590Z,185
2016-06-01T12:27:09.562Z,180
2016-06-01T12:28:09.579Z,180
2016-06-01T12:29:09.599Z,185
2016-06-01T12:30:09.570Z,195
2016-06-01T12:31:09.587Z,200
2016-06-01T12:32:09.607Z,200
2016-06-01T12:33:09.297Z,205
2016-06-01T12:34:09.595Z,210
2016-06-01T12:35:09.614Z,210
2016-06-01T12:36:09.601Z,215
2016-06-01T12:37:09.307Z,215
2016-06-01T12:38:09.623Z,210
2016-06-01T12:39:09.953Z,205
2016-06-01T12:40:10.175Z,205
2016-06-01T12:41:09.631Z,200
2016-06-01T12:42:09.633Z,200
2016-06-01T12:43:09.636Z,195
2016-06-01T12:44:09.498Z,195
2016-06-01T12:45:09.344Z,200
2016-06-01T12:46:09.659Z,200
2016-06-01T12:47:09.506Z,200
2016-06-01T12:48:09.665Z,215
2016-06-01T12:49:09.668Z,220
2016-06-01T12:50:09.686Z,220
2016-06-01T12:51:09.688Z,220
2016-06-01T12:52:09.691Z,220
2016-06-01T12:53:09.679Z,215
2016-06-01T12:54:09.682Z,210
2016-06-01T12:55:09.559Z,210
2016-06-01T12:56:09.734Z,205
2016-06-01T12:57:09.705Z,205
2016-06-01T12:58:09.551Z,195
2016-06-01T12:59:09.742Z,185
2016-06-01T13:00:09.260Z,175
2016-06-01T13:01:09.575Z,170
2016-06-01T13:02:09.734Z,170
2016-06-01T13:03:09.721Z,170
2016-06-01T13:04:09.723Z,165
2016-06-01T13:05:09.742Z,190
2016-06-01T13:06:09.729Z,200
2016-06-01T13:07:09.731Z,200
2016-06-01T13:08:09.594Z,195
2016-06-01T13:09:09.752Z,190
2016-06-01T13:10:10.286Z,195
2016-06-01T13:11:09.617Z,190
2016-06-01T13:12:09.761Z,180
2016-06-01T13:13:09.779Z,185
2016-06-01T13:14:09.782Z,185
2016-06-01T13:15:09.784Z,185
2016-06-01T13:16:09.630Z,185
2016-06-01T13:17:09.790Z,185
2016-06-01T13:18:09.386Z,195
2016-06-01T13:19:09.639Z,190
2016-06-01T13:20:09.813Z,190
2016-06-01T13:21:09.504Z,185
2016-06-01T13:22:09.804Z,180
2016-06-01T13:23:09.666Z,170
2016-06-01T13:24:09.824Z,155
2016-06-01T13:25:09.858Z,155
2016-06-01T13:26:09.846Z,150
2016-06-01T13:27:09.832Z,150
2016-06-01T13:28:09.678Z,145
2016-06-01T13:29:09.682Z,140
2016-06-01T13:30:09.840Z,135
2016-06-01T13:31:09.687Z,135
2016-06-01T13:32:09.861Z,135
2016-06-01T13:33:09.848Z,140
2016-06-01T13:34:09.711Z,145
2016-06-01T13:35:09.713Z,140
2016-06-01T13:36:09.873Z,135
2016-06-01T13:37:09.875Z,135
2016-06-01T13:38:09.878Z,130
2016-06-01T13:39:10.177Z,130
2016-06-01T13:40:10.617Z,125
2016-06-01T13:41:09.901Z,125
2016-06-01T13:42:09.903Z,125
2016-06-01T13:43:09.906Z,125
2016-06-01T13:44:09.768Z,120
2016-06-01T13:45:09.928Z,120
2016-06-01T13:46:09.915Z,120
2016-06-01T13:52:48.013Z,135
2016-06-01T13:53:48.156Z,140
2016-06-01T13:54:48.018Z,145
2016-06-01T13:55:48.739Z,150
2016-06-01T13:56:48.164Z,160
2016-06-01T13:57:48.026Z,170
2016-06-01T14:03:55.322Z,185
2016-06-01T14:04:07.714Z,185
2016-06-01T14:05:07.686Z,180
2016-06-01T14:06:07.689Z,190
2016-06-01T14:07:07.691Z,190
2016-06-01T14:08:07.694Z,185
2016-06-01T14:09:07.682Z,185
2016-06-01T14:10:08.246Z,185
2016-06-01T14:11:07.672Z,185
2016-06-01T14:12:07.690Z,200
2016-06-01T14:13:07.660Z,205
2016-06-01T14:14:07.679Z,205
2016-06-01T14:15:07.682Z,200
2016-06-01T14:16:07.685Z,195
2016-06-01T14:17:07.703Z,190
2016-06-01T14:18:07.722Z,175
2016-06-01T14:19:07.709Z,180
2016-06-01T14:20:07.742Z,170
2016-06-01T14:21:07.715Z,150